Time;durP1;ratioP1;P1;durP2;ratioP2;P2;SDS_P1;SDS_P2;PMS_P1;PMS_P2;Temp;Humidity;BMP_temperature;BMP_pressure;BME280_temperature;BME280_humidity;BME280_pressure;Samples;Min_cycle;Max_cycle;Signal;HPM_P1;HPM_P2
2022/06/06 00:02:27;;;;;;;;;20.00;17.00;26.20;99.90;;;;;;4940347;28;8769;-65
2022/06/06 00:04:53;;;;;;;;;14.60;13.20;26.20;99.90;;;;;;4941107;29;8765;-65
2022/06/06 00:07:20;;;;;;;;;13.00;11.60;26.10;99.90;;;;;;4942374;28;8761;-65
2022/06/06 00:09:47;;;;;;;;;16.40;12.40;26.10;99.90;;;;;;4941641;28;9350;-65
2022/06/06 00:12:15;;;;;;;;;17.80;13.60;26.10;99.90;;;;;;4940425;29;8782;-65
2022/06/06 00:14:43;;;;;;;;;17.40;12.80;26.10;99.90;;;;;;4941393;28;8781;-65
2022/06/06 00:17:09;;;;;;;;;12.20;12.00;26.20;99.90;;;;;;4940450;29;9446;-65
2022/06/06 00:19:36;;;;;;;;;5.40;5.40;26.30;99.90;;;;;;4940854;28;8872;-65
2022/06/06 00:22:02;;;;;;;;;14.80;14.40;26.30;99.90;;;;;;4941796;29;9444;-65
2022/06/06 00:24:29;;;;;;;;;12.40;12.40;26.40;99.90;;;;;;4941181;28;8797;-65
2022/06/06 00:26:56;;;;;;;;;13.20;11.20;26.50;99.90;;;;;;4956586;28;8773;-65
2022/06/06 00:29:23;;;;;;;;;14.40;11.20;26.50;99.90;;;;;;4956315;28;8773;-66
2022/06/06 00:34:49;;;;;;;;;11.60;8.60;27.60;99.90;;;;;;4940720;28;8778;-66
2022/06/06 00:37:24;;;;;;;;;8.40;8.40;27.50;99.90;;;;;;4942052;28;8800;-67
2022/06/06 00:39:51;;;;;;;;;10.80;10.00;27.80;99.90;;;;;;4941418;29;8868;-67
2022/06/06 00:42:25;;;;;;;;;9.80;8.60;28.00;99.90;;;;;;4954958;28;9130;-66
2022/06/06 00:45:19;;;;;;;;;11.60;8.20;27.50;99.90;;;;;;4958270;28;8810;-67
2022/06/06 00:47:49;;;;;;;;;8.20;7.00;27.50;99.90;;;;;;4969775;28;8768;-66
2022/06/06 00:50:19;;;;;;;;;7.40;5.00;27.50;99.90;;;;;;4978143;28;8850;-67
2022/06/06 00:52:45;;;;;;;;;10.80;10.20;27.30;99.90;;;;;;4977015;28;9023;-67
2022/06/06 00:55:17;;;;;;;;;9.40;9.00;27.80;99.90;;;;;;4978217;28;8776;-67
2022/06/06 00:58:02;;;;;;;;;11.40;9.20;27.50;99.90;;;;;;4976142;28;8825;-66
2022/06/06 01:00:28;;;;;;;;;8.40;8.00;27.70;99.90;;;;;;4946709;28;8795;-66
2022/06/06 01:02:56;;;;;;;;;2.60;2.20;27.80;99.90;;;;;;4959773;28;8798;-66
2022/06/06 01:05:23;;;;;;;;;10.40;8.00;27.40;99.90;;;;;;4944275;28;8881;-66
2022/06/06 01:07:49;;;;;;;;;9.20;7.20;27.40;99.90;;;;;;4960091;28;8787;-67
2022/06/06 01:10:16;;;;;;;;;12.00;6.80;27.30;99.90;;;;;;4976980;28;9563;-67
2022/06/06 01:12:44;;;;;;;;;8.00;7.00;27.20;99.90;;;;;;4977799;28;8767;-67
2022/06/06 01:15:12;;;;;;;;;9.60;7.20;27.20;99.90;;;;;;4976663;28;8795;-66
2022/06/06 01:17:49;;;;;;;;;8.80;7.80;27.20;99.90;;;;;;4975663;28;8776;-67
2022/06/06 01:20:28;;;;;;;;;10.20;7.80;27.30;99.90;;;;;;4976041;28;8889;-67
2022/06/06 01:23:10;;;;;;;;;10.20;9.00;27.10;99.90;;;;;;4977618;28;8783;-66
2022/06/06 01:26:12;;;;;;;;;8.00;8.00;27.10;99.90;;;;;;4975109;28;8744;-66
2022/06/06 01:28:57;;;;;;;;;10.60;8.40;27.20;99.90;;;;;;4909112;28;8905;-66
2022/06/06 01:31:36;;;;;;;;;11.40;8.60;27.30;99.90;;;;;;4958405;28;8797;-66
2022/06/06 01:34:04;;;;;;;;;10.20;9.40;27.30;99.90;;;;;;4958728;28;8776;-68
2022/06/06 01:36:31;;;;;;;;;17.00;9.40;27.30;99.90;;;;;;4958236;28;8810;-67
2022/06/06 01:38:59;;;;;;;;;12.40;11.00;27.30;99.90;;;;;;4941773;28;8761;-67
2022/06/06 01:41:32;;;;;;;;;12.60;9.20;27.40;99.90;;;;;;4957827;28;8904;-66
2022/06/06 01:44:09;;;;;;;;;7.60;6.60;27.40;99.90;;;;;;4966840;28;8783;-67
2022/06/06 01:46:36;;;;;;;;;13.40;8.60;27.50;99.90;;;;;;4976148;28;8828;-66
2022/06/06 01:49:04;;;;;;;;;10.40;10.20;27.50;99.90;;;;;;4977048;28;8775;-70
2022/06/06 01:51:31;;;;;;;;;13.20;9.00;27.50;99.90;;;;;;4975156;28;8834;-66
2022/06/06 01:53:58;;;;;;;;;12.00;10.20;27.50;99.90;;;;;;4976021;28;8779;-64
2022/06/06 01:56:28;;;;;;;;;11.40;9.00;27.50;99.90;;;;;;4976166;28;8783;-63
2022/06/06 01:58:55;;;;;;;;;10.40;8.40;27.60;99.90;;;;;;4977445;28;8755;-64
2022/06/06 02:01:21;;;;;;;;;11.60;9.40;27.80;99.90;;;;;;4977079;28;8861;-62
2022/06/06 02:03:48;;;;;;;;;9.60;8.00;27.80;99.90;;;;;;4976035;28;8759;-63
2022/06/06 02:06:14;;;;;;;;;9.40;8.60;27.70;99.90;;;;;;4978278;28;8873;-65
2022/06/06 02:08:42;;;;;;;;;10.00;8.00;27.70;99.90;;;;;;4977843;28;8782;-69
2022/06/06 02:11:10;;;;;;;;;7.20;7.20;27.80;99.90;;;;;;4977776;28;8767;-67
2022/06/06 02:13:37;;;;;;;;;7.00;5.80;27.90;99.90;;;;;;4971445;28;9698;-64
2022/06/06 02:16:03;;;;;;;;;8.00;8.00;27.90;99.90;;;;;;4960305;28;8791;-64
2022/06/06 02:18:30;;;;;;;;;7.80;6.40;28.10;99.90;;;;;;4976140;28;9940;-65
2022/06/06 02:20:56;;;;;;;;;9.60;9.20;28.50;99.90;;;;;;4975964;28;8768;-64
2022/06/06 02:23:23;;;;;;;;;8.20;7.20;28.90;99.90;;;;;;4977318;28;9113;-65
2022/06/06 02:25:50;;;;;;;;;5.80;5.00;28.90;99.90;;;;;;4976063;28;8792;-64
2022/06/06 02:28:16;;;;;;;;;8.80;6.80;29.00;99.90;;;;;;4975007;28;8783;-64
2022/06/06 02:30:43;;;;;;;;;11.00;8.00;29.30;99.90;;;;;;4960173;28;8812;-64
2022/06/06 02:33:09;;;;;;;;;8.80;6.40;29.30;99.90;;;;;;4977357;28;8821;-65
2022/06/06 02:35:38;;;;;;;;;9.60;9.40;28.90;99.90;;;;;;4959493;28;8863;-64
2022/06/06 02:38:05;;;;;;;;;10.20;8.40;28.80;99.90;;;;;;4977319;28;8843;-64
2022/06/06 02:40:32;;;;;;;;;9.40;9.00;28.80;99.90;;;;;;4976926;28;8794;-64
2022/06/06 02:42:58;;;;;;;;;11.20;10.80;29.40;99.90;;;;;;4961130;28;8847;-64
2022/06/06 02:45:25;;;;;;;;;9.60;8.00;29.60;99.90;;;;;;4977417;28;8799;-64
2022/06/06 02:47:54;;;;;;;;;7.40;6.40;29.40;99.90;;;;;;4977919;28;8869;-65
2022/06/06 02:50:23;;;;;;;;;9.40;9.40;29.70;99.90;;;;;;4959103;28;8810;-63
2022/06/06 02:52:49;;;;;;;;;8.80;6.60;29.50;99.90;;;;;;4977952;28;8791;-64
2022/06/06 02:55:16;;;;;;;;;9.40;9.40;29.50;99.90;;;;;;4960457;28;8806;-65
2022/06/06 02:57:44;;;;;;;;;7.40;7.40;29.50;99.90;;;;;;4980777;28;8786;-64
2022/06/06 03:00:13;;;;;;;;;9.20;7.60;29.80;99.90;;;;;;4963772;28;8787;-63
2022/06/06 03:02:40;;;;;;;;;7.00;6.00;29.80;99.90;;;;;;4980287;28;8775;-63
2022/06/06 03:05:08;;;;;;;;;6.80;5.00;29.40;99.90;;;;;;4963154;28;8771;-64
2022/06/06 03:07:55;;;;;;;;;7.00;6.00;30.00;99.90;;;;;;4979677;28;8771;-64
2022/06/06 03:10:49;;;;;;;;;2.60;2.60;29.80;99.90;;;;;;4981226;28;8780;-64
2022/06/06 03:13:21;;;;;;;;;8.20;4.00;29.90;99.90;;;;;;4981043;28;8784;-63
2022/06/06 03:22:44;;;;;;;;;6.00;4.20;29.60;99.90;;;;;;4964614;28;8756;-62
2022/06/06 03:25:27;;;;;;;;;6.00;6.00;29.90;99.90;;;;;;4976725;28;8796;-64
2022/06/06 03:28:03;;;;;;;;;5.40;5.00;29.90;99.90;;;;;;4979478;28;8743;-65
2022/06/06 03:31:07;;;;;;;;;7.80;7.00;29.90;99.90;;;;;;4962214;28;8855;-66
2022/06/06 03:33:58;;;;;;;;;9.40;9.20;29.90;99.90;;;;;;4976595;28;8787;-66
2022/06/06 03:36:42;;;;;;;;;7.00;6.20;30.60;99.90;;;;;;4962257;28;8763;-72
2022/06/06 03:39:39;;;;;;;;;5.20;5.20;30.70;99.90;;;;;;4962958;28;8767;-61
2022/06/06 03:42:13;;;;;;;;;6.60;4.40;30.40;99.90;;;;;;4978973;28;8889;-72
2022/06/06 03:44:47;;;;;;;;;7.60;6.00;30.70;99.90;;;;;;4953960;29;8955;-71
2022/06/06 03:47:34;;;;;;;;;8.60;6.00;30.50;99.90;;;;;;4955989;29;8798;-68
2022/06/06 03:50:03;;;;;;;;;6.80;6.80;30.70;99.90;;;;;;4940358;29;8813;-59
2022/06/06 03:52:45;;;;;;;;;7.40;5.80;30.50;99.90;;;;;;4940680;29;8793;-72
2022/06/06 03:55:33;;;;;;;;;5.20;3.20;30.70;99.90;;;;;;4940198;29;9462;-71
2022/06/06 03:58:00;;;;;;;;;5.40;5.40;30.60;99.90;;;;;;4955177;29;9449;-67
2022/06/06 04:00:26;;;;;;;;;5.80;5.40;30.80;99.90;;;;;;4955608;28;8770;-71
2022/06/06 04:02:53;;;;;;;;;6.40;5.00;30.60;99.90;;;;;;4956158;28;8778;-72
2022/06/06 04:05:22;;;;;;;;;6.80;6.60;30.50;99.90;;;;;;4955625;28;8777;-65
2022/06/06 04:07:49;;;;;;;;;7.80;6.80;30.40;99.90;;;;;;4940587;29;8800;-57
2022/06/06 04:10:16;;;;;;;;;6.40;6.40;30.60;99.90;;;;;;4941925;28;8817;-71
2022/06/06 04:13:06;;;;;;;;;4.40;4.00;31.20;99.90;;;;;;4940885;29;8809;-71
2022/06/06 04:15:38;;;;;;;;;6.00;4.20;31.10;99.90;;;;;;4935370;28;9501;-65
2022/06/06 04:18:16;;;;;;;;;5.40;4.20;31.50;99.90;;;;;;4941304;29;8926;-61
2022/06/06 04:21:13;;;;;;;;;5.60;5.60;31.50;99.90;;;;;;4939461;28;8778;-72
2022/06/06 04:24:19;;;;;;;;;9.60;6.00;31.60;99.90;;;;;;4940662;29;8781;-72
2022/06/06 04:26:51;;;;;;;;;7.40;6.00;31.00;99.90;;;;;;4940306;29;8762;-68
2022/06/06 04:29:21;;;;;;;;;5.80;5.80;30.40;99.90;;;;;;4955438;28;8774;-67
2022/06/06 04:32:13;;;;;;;;;4.80;4.80;30.40;99.90;;;;;;4939819;29;8796;-72
2022/06/06 04:35:02;;;;;;;;;5.00;3.40;30.80;99.90;;;;;;4938905;28;8789;-76
2022/06/06 04:37:34;;;;;;;;;3.80;3.40;30.40;99.90;;;;;;4940263;29;8785;-80
2022/06/06 04:40:20;;;;;;;;;4.60;3.20;30.90;99.90;;;;;;4941281;28;8881;-72
2022/06/06 04:42:53;;;;;;;;;4.40;4.40;31.00;99.90;;;;;;4952105;28;8859;-82
2022/06/06 04:45:32;;;;;;;;;6.80;6.00;31.20;99.90;;;;;;4954688;29;8805;-82
2022/06/06 04:48:00;;;;;;;;;7.00;5.00;32.00;99.90;;;;;;4940288;29;8774;-77
2022/06/06 04:50:26;;;;;;;;;8.60;8.60;32.50;99.90;;;;;;4954970;28;8801;-76
2022/06/06 04:52:54;;;;;;;;;6.00;4.40;32.60;99.90;;;;;;4939112;28;8777;-83
2022/06/06 04:55:21;;;;;;;;;5.20;4.60;32.50;99.90;;;;;;4939987;29;8766;-76
2022/06/06 04:57:50;;;;;;;;;4.40;3.00;32.50;99.90;;;;;;4940132;28;8782;-79
2022/06/06 05:00:17;;;;;;;;;2.40;1.20;32.30;99.90;;;;;;4955427;29;8797;-76
2022/06/06 05:02:44;;;;;;;;;1.20;1.20;31.40;99.90;;;;;;4954874;28;8799;-73
2022/06/06 05:05:10;;;;;;;;;4.00;2.60;31.40;99.90;;;;;;4940256;29;8939;-79
2022/06/06 05:08:08;;;;;;;;;5.80;3.40;31.10;99.90;;;;;;4954771;28;8832;-76
2022/06/06 05:10:43;;;;;;;;;2.60;1.60;31.10;99.90;;;;;;4953431;28;8821;-62
2022/06/06 05:13:21;;;;;;;;;5.00;2.20;31.90;99.90;;;;;;4935665;28;9449;-80
2022/06/06 05:16:06;;;;;;;;;3.60;3.60;31.60;99.90;;;;;;4921144;29;8780;-75
2022/06/06 05:19:02;;;;;;;;;6.40;4.60;31.80;99.90;;;;;;4933624;28;8800;-65
2022/06/06 05:22:04;;;;;;;;;5.80;4.60;31.60;99.90;;;;;;4917075;29;8882;-60
2022/06/06 05:24:36;;;;;;;;;7.40;3.80;32.00;99.90;;;;;;4933391;29;8823;-62
2022/06/06 05:27:25;;;;;;;;;6.00;4.60;31.40;99.90;;;;;;4921214;29;8784;-84
2022/06/06 05:30:08;;;;;;;;;4.20;1.20;31.70;99.90;;;;;;4937986;29;8785;-80
2022/06/06 05:33:11;;;;;;;;;4.80;2.40;31.40;99.90;;;;;;4953069;28;8778;-77
2022/06/06 05:36:23;;;;;;;;;0.60;0.60;32.10;99.90;;;;;;4940538;29;8793;-74
2022/06/06 05:38:55;;;;;;;;;1.60;1.00;32.40;99.90;;;;;;4884180;29;8791;-61
2022/06/06 05:41:54;;;;;;;;;3.00;3.00;31.40;99.90;;;;;;4899601;29;8788;-67
2022/06/06 05:44:36;;;;;;;;;4.00;3.00;31.40;99.90;;;;;;4901214;29;9009;-68
2022/06/06 05:47:11;;;;;;;;;2.60;2.00;31.70;99.90;;;;;;4900052;29;8784;-72
2022/06/06 05:49:42;;;;;;;;;2.60;2.60;31.80;99.90;;;;;;4899429;29;8784;-60
2022/06/06 05:52:32;;;;;;;;;2.60;2.00;31.30;99.90;;;;;;4900505;29;8796;-73
2022/06/06 05:55:11;;;;;;;;;3.00;3.00;31.70;99.90;;;;;;4900052;29;9672;-61
2022/06/06 05:58:16;;;;;;;;;4.20;4.20;31.70;99.90;;;;;;4899520;29;8816;-72
2022/06/06 06:01:23;;;;;;;;;2.80;2.80;32.40;99.90;;;;;;4899561;29;8788;-72
2022/06/06 06:04:07;;;;;;;;;0.40;0.20;32.60;99.90;;;;;;4899715;29;8772;-59
2022/06/06 06:06:54;;;;;;;;;5.00;2.40;32.70;99.90;;;;;;4883958;29;8792;-63
2022/06/06 06:09:40;;;;;;;;;2.60;1.20;33.10;99.90;;;;;;4906773;29;9596;-71
2022/06/06 06:12:37;;;;;;;;;4.80;2.00;32.90;99.90;;;;;;4938163;29;8800;-70
2022/06/06 06:15:26;;;;;;;;;2.20;2.20;32.80;99.90;;;;;;4951991;29;8796;-67
2022/06/06 06:17:56;;;;;;;;;3.80;2.20;32.10;99.90;;;;;;4954983;29;8769;-70
2022/06/06 06:20:31;;;;;;;;;3.60;2.80;31.80;99.90;;;;;;4954180;28;8777;-68
2022/06/06 06:23:03;;;;;;;;;4.00;3.00;31.50;99.90;;;;;;4954210;29;9081;-70
2022/06/06 06:25:32;;;;;;;;;2.60;2.60;31.30;99.90;;;;;;4939916;29;8874;-71
2022/06/06 06:28:02;;;;;;;;;4.00;3.00;31.20;99.90;;;;;;4955094;29;8872;-61
2022/06/06 06:30:31;;;;;;;;;2.80;2.80;31.30;99.90;;;;;;4941406;29;8790;-66
2022/06/06 06:33:08;;;;;;;;;2.80;2.40;31.40;99.90;;;;;;4957688;29;8849;-72
2022/06/06 06:36:02;;;;;;;;;1.80;1.00;31.30;99.90;;;;;;4942512;29;8808;-67
2022/06/06 06:38:46;;;;;;;;;2.20;2.20;31.30;99.90;;;;;;4958898;29;8800;-72
2022/06/06 06:41:12;;;;;;;;;3.00;3.00;31.30;99.90;;;;;;4942964;29;8796;-66
2022/06/06 06:44:18;;;;;;;;;3.60;3.20;31.40;99.90;;;;;;4943725;29;8826;-71
2022/06/06 06:46:48;;;;;;;;;2.80;2.00;31.50;99.90;;;;;;4943941;29;8780;-68
2022/06/06 06:49:38;;;;;;;;;4.20;3.00;31.50;99.90;;;;;;4944586;29;8933;-68
2022/06/06 06:52:38;;;;;;;;;3.40;3.40;31.70;99.90;;;;;;4959520;28;8780;-72
2022/06/06 06:55:32;;;;;;;;;1.00;0.00;31.70;99.90;;;;;;4944162;29;8751;-67
2022/06/06 06:58:09;;;;;;;;;1.80;0.80;31.70;99.90;;;;;;4958940;29;8775;-71
2022/06/06 07:00:57;;;;;;;;;0.20;0.20;31.50;99.90;;;;;;4958152;29;8831;-70
2022/06/06 07:09:41;;;;;;;;;0.40;0.00;31.90;99.90;;;;;;4943470;29;8790;-67
2022/06/06 07:12:23;;;;;;;;;0.40;0.40;32.00;99.90;;;;;;4944424;29;8771;-64
2022/06/06 07:15:16;;;;;;;;;0.80;0.40;32.00;99.90;;;;;;4958355;29;8793;-70
2022/06/06 07:17:51;;;;;;;;;2.20;2.00;32.00;99.90;;;;;;4958325;29;8763;-63
2022/06/06 07:20:18;;;;;;;;;1.60;0.00;31.70;99.90;;;;;;4943554;29;8775;-68
2022/06/06 07:23:00;;;;;;;;;2.00;2.00;31.90;99.90;;;;;;4958844;28;11080;-62
2022/06/06 07:25:28;;;;;;;;;0.00;0.00;32.10;99.90;;;;;;4943828;28;10571;-69
2022/06/06 07:27:54;;;;;;;;;1.00;0.00;32.10;99.90;;;;;;4944004;29;8760;-68
2022/06/06 07:30:24;;;;;;;;;1.00;0.00;32.00;99.90;;;;;;4943087;29;8882;-66
2022/06/06 07:33:09;;;;;;;;;0.80;0.80;32.10;99.90;;;;;;4957472;29;8795;-71
2022/06/06 07:36:00;;;;;;;;;1.00;0.00;32.20;99.90;;;;;;4942139;29;8782;-64
2022/06/06 07:38:58;;;;;;;;;2.60;2.00;32.00;99.90;;;;;;4956486;29;8783;-71
2022/06/06 07:41:34;;;;;;;;;0.00;0.00;32.00;99.90;;;;;;4940728;29;8767;-64
2022/06/06 07:44:07;;;;;;;;;0.20;0.00;32.20;99.90;;;;;;4955365;29;8779;-71
2022/06/06 07:46:55;;;;;;;;;1.60;0.00;32.20;99.90;;;;;;4977971;28;8948;-65
2022/06/06 07:49:24;;;;;;;;;2.00;0.00;32.30;99.90;;;;;;4963469;28;8763;-71
2022/06/06 07:52:22;;;;;;;;;0.00;0.00;32.30;99.90;;;;;;4963638;28;8890;-69
2022/06/06 07:55:11;;;;;;;;;0.00;0.00;32.20;99.90;;;;;;4951457;28;8870;-72
2022/06/06 07:57:47;;;;;;;;;0.00;0.00;32.30;99.90;;;;;;4979695;28;8799;-71
2022/06/06 08:00:21;;;;;;;;;1.00;0.00;32.30;99.90;;;;;;4960410;28;9024;-61
2022/06/06 08:03:09;;;;;;;;;0.00;0.00;32.20;99.90;;;;;;4944041;28;8773;-71
2022/06/06 08:05:41;;;;;;;;;0.00;0.00;32.10;99.90;;;;;;4960622;28;8849;-72
2022/06/06 08:08:15;;;;;;;;;0.00;0.00;32.40;99.90;;;;;;4943462;28;8770;-69
2022/06/06 08:10:43;;;;;;;;;0.00;0.00;32.40;99.90;;;;;;4960490;28;8785;-70
2022/06/06 08:13:31;;;;;;;;;0.00;0.00;32.50;99.90;;;;;;4964734;28;8767;-70
2022/06/06 08:16:13;;;;;;;;;1.20;0.00;32.30;99.90;;;;;;4980413;28;8862;-70
2022/06/06 08:18:49;;;;;;;;;0.00;0.00;32.30;99.90;;;;;;4967834;28;8960;-69
2022/06/06 08:21:24;;;;;;;;;0.00;0.00;32.40;99.90;;;;;;4979247;28;9477;-70
2022/06/06 08:23:53;;;;;;;;;0.00;0.00;32.40;99.90;;;;;;4978926;28;8787;-70
2022/06/06 08:26:19;;;;;;;;;0.00;0.00;32.40;99.90;;;;;;4977387;28;8779;-69
2022/06/06 08:28:46;;;;;;;;;0.00;0.00;32.50;99.50;;;;;;4977909;28;8768;-70
2022/06/06 08:31:13;;;;;;;;;0.00;0.00;32.40;99.90;;;;;;4978758;28;8811;-69
2022/06/06 08:33:39;;;;;;;;;0.20;0.00;32.40;99.90;;;;;;4977962;28;8885;-71
2022/06/06 08:36:13;;;;;;;;;0.00;0.00;32.40;99.80;;;;;;4979012;28;9062;-71
2022/06/06 08:39:03;;;;;;;;;2.00;0.00;32.50;99.40;;;;;;4978631;28;8807;-69
2022/06/06 08:41:55;;;;;;;;;0.00;0.00;32.30;99.70;;;;;;4961649;28;8789;-71
2022/06/06 08:45:03;;;;;;;;;0.60;0.00;32.50;99.80;;;;;;4978553;28;8890;-70
2022/06/06 08:47:52;;;;;;;;;0.00;0.00;32.60;99.90;;;;;;4900248;29;8784;-72
2022/06/06 08:50:53;;;;;;;;;0.60;0.60;32.40;99.90;;;;;;4979089;28;8814;-66
2022/06/06 08:53:28;;;;;;;;;0.20;0.20;32.30;99.60;;;;;;4977869;28;8894;-71
2022/06/06 08:56:01;;;;;;;;;0.00;0.00;32.10;99.90;;;;;;4961698;28;8791;-72
2022/06/06 08:58:53;;;;;;;;;0.40;0.40;32.10;99.90;;;;;;4978878;28;8766;-67
2022/06/06 09:01:31;;;;;;;;;1.60;0.00;32.00;99.90;;;;;;4965022;28;8788;-71
2022/06/06 09:04:14;;;;;;;;;0.00;0.00;32.00;99.90;;;;;;4979977;28;8854;-72
2022/06/06 09:06:46;;;;;;;;;0.00;0.00;32.30;99.90;;;;;;4978858;28;8807;-70
2022/06/06 09:09:37;;;;;;;;;0.00;0.00;32.40;99.90;;;;;;4961354;28;9455;-69
2022/06/06 09:12:07;;;;;;;;;0.40;0.00;32.50;99.90;;;;;;4979028;28;8764;-68
2022/06/06 09:15:15;;;;;;;;;2.00;0.00;32.50;99.90;;;;;;4978823;28;8850;-66
2022/06/06 09:18:00;;;;;;;;;0.00;0.00;32.50;99.90;;;;;;4977990;28;8767;-72
2022/06/06 09:20:26;;;;;;;;;0.00;0.00;32.40;99.90;;;;;;4961365;28;8786;-65
2022/06/06 09:23:31;;;;;;;;;0.00;0.00;32.40;99.90;;;;;;4978983;28;8902;-72
2022/06/06 09:26:02;;;;;;;;;0.00;0.00;32.30;99.90;;;;;;4948206;28;8881;-64
2022/06/06 09:29:07;;;;;;;;;0.60;0.60;32.10;99.90;;;;;;4977045;28;9458;-71
2022/06/06 09:31:42;;;;;;;;;0.00;0.00;32.30;99.90;;;;;;4961337;28;8783;-64
2022/06/06 09:34:11;;;;;;;;;0.60;0.60;32.20;99.40;;;;;;4980265;28;8859;-72
2022/06/06 09:36:46;;;;;;;;;0.80;0.00;32.10;99.80;;;;;;4978303;28;8808;-71
2022/06/06 09:39:32;;;;;;;;;1.00;1.00;32.10;99.90;;;;;;4978483;28;8813;-63
2022/06/06 09:42:17;;;;;;;;;1.20;1.00;32.00;99.90;;;;;;4946030;28;8782;-69
2022/06/06 09:45:02;;;;;;;;;1.00;1.00;32.00;99.90;;;;;;4978640;28;8784;-71
2022/06/06 09:47:41;;;;;;;;;2.00;2.00;31.90;99.90;;;;;;4978353;28;8794;-69
2022/06/06 09:50:19;;;;;;;;;2.00;2.00;31.80;99.90;;;;;;4978719;28;8782;-72
2022/06/06 09:52:59;;;;;;;;;6.20;2.40;31.80;99.90;;;;;;4976767;28;8826;-67
2022/06/06 09:59:14;;;;;;;;;2.40;2.40;31.80;99.90;;;;;;4977589;28;8891;-62
2022/06/06 10:01:59;;;;;;;;;3.80;2.60;31.80;99.90;;;;;;4963484;28;8772;-70
2022/06/06 10:04:34;;;;;;;;;3.80;3.60;31.80;99.90;;;;;;4977723;28;8752;-63
2022/06/06 10:07:07;;;;;;;;;2.60;1.80;31.70;99.90;;;;;;4978184;28;8899;-71
2022/06/06 10:09:58;;;;;;;;;1.00;1.00;31.70;99.90;;;;;;4977890;28;8813;-68
2022/06/06 10:12:55;;;;;;;;;1.00;1.00;31.70;99.90;;;;;;4977817;28;8770;-65
2022/06/06 10:15:37;;;;;;;;;4.80;2.80;31.70;99.90;;;;;;4958787;28;8765;-68
2022/06/06 10:18:25;;;;;;;;;10.80;7.60;31.70;99.90;;;;;;4958602;28;8765;-69
2022/06/06 10:21:13;;;;;;;;;4.80;3.80;31.60;99.90;;;;;;4958979;28;9402;-68
2022/06/06 10:24:00;;;;;;;;;3.20;3.00;31.60;99.90;;;;;;4958706;28;8773;-68
2022/06/06 10:26:47;;;;;;;;;3.00;3.00;31.50;99.90;;;;;;4958277;29;9469;-68
2022/06/06 10:32:34;;;;;;;;;4.40;3.40;31.50;99.90;;;;;;4977641;28;8764;-69
2022/06/06 10:35:47;;;;;;;;;7.00;4.60;31.50;99.90;;;;;;4977110;28;8799;-69
2022/06/06 10:38:35;;;;;;;;;6.00;5.00;31.50;99.90;;;;;;4891556;29;8815;-70
2022/06/06 10:41:23;;;;;;;;;6.60;4.00;31.40;99.90;;;;;;4880401;29;8830;-58
2022/06/06 10:43:52;;;;;;;;;4.80;4.00;31.40;99.90;;;;;;4940968;28;8775;-71
2022/06/06 10:46:28;;;;;;;;;5.60;5.40;31.40;99.90;;;;;;4978119;28;8923;-68
2022/06/06 10:49:18;;;;;;;;;4.00;2.80;31.40;99.90;;;;;;4961673;28;8791;-63
2022/06/06 10:52:07;;;;;;;;;5.80;4.80;31.30;99.90;;;;;;4963516;28;8779;-71
2022/06/06 10:54:45;;;;;;;;;6.00;4.20;31.20;99.90;;;;;;4977956;28;8798;-68
2022/06/06 10:57:49;;;;;;;;;3.60;3.60;31.20;99.90;;;;;;4978409;28;8767;-66
2022/06/06 11:00:19;;;;;;;;;3.00;3.00;31.20;99.90;;;;;;4957158;28;8786;-70
2022/06/06 11:03:12;;;;;;;;;6.00;4.00;31.20;99.90;;;;;;4958636;29;8769;-69
2022/06/06 11:05:56;;;;;;;;;5.60;1.80;31.20;99.90;;;;;;4958541;28;8797;-71
2022/06/06 11:08:35;;;;;;;;;2.00;2.00;31.10;99.90;;;;;;4941158;29;8773;-68
2022/06/06 11:11:20;;;;;;;;;3.60;1.80;31.10;99.90;;;;;;4958624;28;8772;-72
2022/06/06 11:14:01;;;;;;;;;5.00;4.00;31.10;99.90;;;;;;4967150;28;8744;-68
2022/06/06 11:16:48;;;;;;;;;2.80;2.00;31.00;99.90;;;;;;4978194;28;8778;-72
2022/06/06 11:19:33;;;;;;;;;2.20;2.00;31.00;99.90;;;;;;4933225;28;8795;-69
2022/06/06 11:22:23;;;;;;;;;1.60;0.80;30.90;99.90;;;;;;4981411;28;8783;-71
2022/06/06 11:25:09;;;;;;;;;1.40;0.40;30.80;99.90;;;;;;4966564;28;8870;-66
2022/06/06 11:27:59;;;;;;;;;5.20;3.00;30.80;99.90;;;;;;4963600;28;8791;-73
2022/06/06 11:30:48;;;;;;;;;5.00;4.00;30.80;99.90;;;;;;4944422;28;8798;-69
2022/06/06 11:33:45;;;;;;;;;2.20;2.20;30.80;99.90;;;;;;4944428;28;8789;-70
2022/06/06 11:36:27;;;;;;;;;7.80;3.80;30.80;99.90;;;;;;4960418;28;8765;-66
2022/06/06 11:39:15;;;;;;;;;2.60;2.60;30.70;99.90;;;;;;4961492;28;8851;-70
2022/06/06 11:42:04;;;;;;;;;2.80;2.80;30.70;99.90;;;;;;4961323;28;8911;-71
2022/06/06 11:45:11;;;;;;;;;2.00;2.00;30.60;99.90;;;;;;4975608;28;9211;-71
2022/06/06 11:47:58;;;;;;;;;10.80;6.60;30.60;99.90;;;;;;4902226;29;9223;-72
2022/06/06 11:50:43;;;;;;;;;12.00;10.60;30.50;99.90;;;;;;4941448;29;8801;-60
2022/06/06 11:53:25;;;;;;;;;5.80;5.80;30.40;99.90;;;;;;4940914;29;9525;-72
2022/06/06 11:56:23;;;;;;;;;7.20;4.40;30.50;99.90;;;;;;4942265;29;8821;-72
2022/06/06 11:59:02;;;;;;;;;4.60;2.80;30.40;99.90;;;;;;4926607;29;8828;-67
2022/06/06 12:01:49;;;;;;;;;6.20;4.60;30.20;99.90;;;;;;4940720;28;8785;-72
2022/06/06 12:04:42;;;;;;;;;4.00;3.40;30.20;99.90;;;;;;4941713;29;8801;-67
2022/06/06 12:07:17;;;;;;;;;4.00;3.20;30.10;99.90;;;;;;4942157;29;8776;-72
2022/06/06 12:09:59;;;;;;;;;4.40;4.00;30.10;99.90;;;;;;4940982;29;8888;-72
2022/06/06 12:12:53;;;;;;;;;0.00;0.00;30.10;99.90;;;;;;4940108;28;8826;-69
2022/06/06 12:15:30;;;;;;;;;6.20;5.00;30.00;99.90;;;;;;4922201;29;8787;-70
2022/06/06 12:18:20;;;;;;;;;4.00;4.00;30.00;99.90;;;;;;4921647;29;8798;-72
2022/06/06 12:21:05;;;;;;;;;4.80;4.60;30.00;99.90;;;;;;4921581;29;9433;-72
2022/06/06 12:24:10;;;;;;;;;3.00;2.00;29.90;99.90;;;;;;4921072;29;8775;-63
2022/06/06 12:27:03;;;;;;;;;8.00;5.00;29.80;99.90;;;;;;4922268;29;8802;-72
2022/06/06 12:30:06;;;;;;;;;14.00;11.00;29.80;99.90;;;;;;4934209;29;9468;-72
2022/06/06 12:32:51;;;;;;;;;29.75;26.50;29.80;99.90;;;;;;4941217;29;8753;-68
2022/06/06 12:35:27;;;;;;;;;22.40;19.80;29.80;99.90;;;;;;4941112;29;9469;-68
2022/06/06 12:38:14;;;;;;;;;17.60;15.40;29.80;99.90;;;;;;4956021;29;8899;-70
2022/06/06 12:40:57;;;;;;;;;13.00;10.25;29.90;99.90;;;;;;4934677;28;8777;-71
2022/06/06 12:44:05;;;;;;;;;14.40;13.40;29.90;99.90;;;;;;4955570;28;8924;-65
2022/06/06 12:46:54;;;;;;;;;11.00;10.20;29.90;99.90;;;;;;4919135;29;8903;-72
2022/06/06 12:49:53;;;;;;;;;17.20;15.80;29.70;99.90;;;;;;4941368;29;8995;-72
2022/06/06 12:53:00;;;;;;;;;16.40;13.80;29.80;99.90;;;;;;4927893;29;8801;-67
2022/06/06 12:55:39;;;;;;;;;10.20;10.20;30.00;99.90;;;;;;4894042;28;8885;-70
2022/06/06 12:58:27;;;;;;;;;6.00;6.00;30.10;99.90;;;;;;4941372;29;8785;-70
2022/06/06 13:04:13;;;;;;;;;12.20;8.60;30.10;99.90;;;;;;4953067;29;8789;-68
2022/06/06 13:07:01;;;;;;;;;7.20;6.00;30.20;99.90;;;;;;4940871;29;8766;-71
2022/06/06 13:09:55;;;;;;;;;7.20;5.00;30.10;99.90;;;;;;4953776;28;10843;-67
2022/06/06 13:12:40;;;;;;;;;9.00;6.00;30.00;99.90;;;;;;4940246;29;8781;-72
2022/06/06 13:15:22;;;;;;;;;5.80;4.00;29.90;99.90;;;;;;4940428;29;10088;-72
2022/06/06 13:18:10;;;;;;;;;7.40;5.40;29.90;99.90;;;;;;4940790;29;8815;-62
2022/06/06 13:20:56;;;;;;;;;7.20;5.60;30.00;99.90;;;;;;4940456;29;8809;-72
2022/06/06 13:23:59;;;;;;;;;3.00;3.00;29.90;99.90;;;;;;4940252;29;8792;-55
2022/06/06 13:26:47;;;;;;;;;3.40;2.60;30.00;99.90;;;;;;4940571;29;8836;-71
2022/06/06 13:29:33;;;;;;;;;4.20;3.00;29.90;99.90;;;;;;4943335;29;8768;-72
2022/06/06 13:32:22;;;;;;;;;6.60;3.80;29.90;99.90;;;;;;4921432;29;8788;-71
2022/06/06 13:35:22;;;;;;;;;4.00;3.80;29.90;99.90;;;;;;4920662;29;8780;-63
2022/06/06 13:38:19;;;;;;;;;5.60;3.40;29.80;99.90;;;;;;4921515;29;8775;-68
2022/06/06 13:40:48;;;;;;;;;6.00;4.40;29.70;99.90;;;;;;4921599;29;8780;-54
2022/06/06 13:43:22;;;;;;;;;3.20;3.00;29.70;99.90;;;;;;4924619;29;8860;-71
2022/06/06 13:45:48;;;;;;;;;2.20;2.20;29.80;99.90;;;;;;4964980;28;8771;-72
2022/06/06 13:48:56;;;;;;;;;6.00;4.60;29.70;99.90;;;;;;4959376;28;8821;-68
2022/06/06 13:51:23;;;;;;;;;6.60;3.20;29.70;99.90;;;;;;4918520;29;8818;-70
2022/06/06 13:54:03;;;;;;;;;2.60;2.60;29.60;99.90;;;;;;4952978;28;8889;-72
2022/06/06 13:56:42;;;;;;;;;4.40;4.40;29.60;99.90;;;;;;4959208;28;8763;-67
2022/06/06 13:59:26;;;;;;;;;5.00;5.00;29.60;99.90;;;;;;4959483;28;9450;-68
2022/06/06 14:02:14;;;;;;;;;5.00;3.20;29.70;99.90;;;;;;4958919;28;8771;-71
2022/06/06 14:05:08;;;;;;;;;8.60;7.00;29.80;99.90;;;;;;4973252;28;8861;-64
2022/06/06 14:07:57;;;;;;;;;6.60;6.60;29.70;99.90;;;;;;4973249;28;8807;-72
2022/06/06 14:10:33;;;;;;;;;7.20;5.00;29.70;99.90;;;;;;4958218;28;8833;-67
2022/06/06 14:13:24;;;;;;;;;3.80;3.80;29.60;99.90;;;;;;4958224;28;8787;-67
2022/06/06 14:15:51;;;;;;;;;7.00;6.00;29.60;99.90;;;;;;4974052;28;8791;-72
2022/06/06 14:18:33;;;;;;;;;7.40;4.20;29.70;99.90;;;;;;4973206;28;8811;-70
2022/06/06 14:21:00;;;;;;;;;7.80;4.60;29.60;99.90;;;;;;4973817;28;8798;-59
2022/06/06 14:23:35;;;;;;;;;5.60;5.60;29.60;99.90;;;;;;4973746;28;8795;-71
2022/06/06 14:26:14;;;;;;;;;5.40;4.40;29.60;99.90;;;;;;4973455;28;8806;-72
2022/06/06 14:28:42;;;;;;;;;3.80;3.80;29.70;99.90;;;;;;4969440;28;8826;-73